sensor_id;sensor_type;location;lat;lon;timestamp;temperature;humidity
20929;DHT22;21895;47.072;15.132;2023-04-15T00:01:00;7.60;99.90
20929;DHT22;21895;47.072;15.132;2023-04-15T00:03:27;7.70;99.90
20929;DHT22;21895;47.072;15.132;2023-04-15T00:05:54;7.70;99.90
20929;DHT22;21895;47.072;15.132;2023-04-15T00:08:21;7.70;99.90
20929;DHT22;21895;47.072;15.132;2023-04-15T00:10:47;7.70;99.90
20929;DHT22;21895;47.072;15.132;2023-04-15T00:13:14;7.70;99.90
20929;DHT22;21895;47.072;15.132;2023-04-15T00:15:41;7.70;99.90
20929;DHT22;21895;47.072;15.132;2023-04-15T00:18:08;7.70;99.90
20929;DHT22;21895;47.072;15.132;2023-04-15T00:20:34;7.70;99.90
20929;DHT22;21895;47.072;15.132;2023-04-15T00:23:02;7.70;99.90
20929;DHT22;21895;47.072;15.132;2023-04-15T00:25:28;7.60;99.90
20929;DHT22;21895;47.072;15.132;2023-04-15T00:27:55;7.60;99.90
20929;DHT22;21895;47.072;15.132;2023-04-15T00:30:21;7.60;99.90
20929;DHT22;21895;47.072;15.132;2023-04-15T00:32:48;7.60;99.90
20929;DHT22;21895;47.072;15.132;2023-04-15T00:35:15;7.60;99.90
20929;DHT22;21895;47.072;15.132;2023-04-15T00:37:41;7.70;99.90
20929;DHT22;21895;47.072;15.132;2023-04-15T00:40:16;7.70;99.90
20929;DHT22;21895;47.072;15.132;2023-04-15T00:42:44;7.70;99.90
20929;DHT22;21895;47.072;15.132;2023-04-15T00:45:11;7.50;99.90
20929;DHT22;21895;47.072;15.132;2023-04-15T00:47:38;7.50;99.90
20929;DHT22;21895;47.072;15.132;2023-04-15T00:50:08;7.50;99.90
20929;DHT22;21895;47.072;15.132;2023-04-15T00:52:35;7.50;99.90
20929;DHT22;21895;47.072;15.132;2023-04-15T00:55:02;7.50;99.90
20929;DHT22;21895;47.072;15.132;2023-04-15T00:57:30;7.40;99.90
20929;DHT22;21895;47.072;15.132;2023-04-15T00:59:57;7.40;99.90
20929;DHT22;21895;47.072;15.132;2023-04-15T01:02:23;7.30;99.90
20929;DHT22;21895;47.072;15.132;2023-04-15T01:04:50;7.30;99.90
20929;DHT22;21895;47.072;15.132;2023-04-15T01:07:17;7.30;99.90
20929;DHT22;21895;47.072;15.132;2023-04-15T01:09:44;7.30;99.90
20929;DHT22;21895;47.072;15.132;2023-04-15T01:12:12;7.20;99.90
20929;DHT22;21895;47.072;15.132;2023-04-15T01:14:40;7.20;99.90
20929;DHT22;21895;47.072;15.132;2023-04-15T01:17:07;7.20;99.90
20929;DHT22;21895;47.072;15.132;2023-04-15T01:19:35;7.20;99.90
20929;DHT22;21895;47.072;15.132;2023-04-15T01:22:02;7.20;99.90
20929;DHT22;21895;47.072;15.132;2023-04-15T01:24:31;7.10;99.90
20929;DHT22;21895;47.072;15.132;2023-04-15T01:27:00;7.10;99.90
20929;DHT22;21895;47.072;15.132;2023-04-15T01:29:27;7.10;99.90
20929;DHT22;21895;47.072;15.132;2023-04-15T01:31:55;7.10;99.90
20929;DHT22;21895;47.072;15.132;2023-04-15T01:34:21;7.10;99.90
20929;DHT22;21895;47.072;15.132;2023-04-15T01:36:48;7.00;99.90
20929;DHT22;21895;47.072;15.132;2023-04-15T01:39:14;7.10;99.90
20929;DHT22;21895;47.072;15.132;2023-04-15T01:41:41;7.10;99.90
20929;DHT22;21895;47.072;15.132;2023-04-15T01:44:08;7.00;99.90
20929;DHT22;21895;47.072;15.132;2023-04-15T01:46:36;7.00;99.90
20929;DHT22;21895;47.072;15.132;2023-04-15T01:49:02;7.00;99.90
20929;DHT22;21895;47.072;15.132;2023-04-15T01:51:29;7.00;99.90
20929;DHT22;21895;47.072;15.132;2023-04-15T01:53:55;7.00;99.90
20929;DHT22;21895;47.072;15.132;2023-04-15T01:56:22;7.00;99.90
20929;DHT22;21895;47.072;15.132;2023-04-15T01:58:49;7.10;99.90
20929;DHT22;21895;47.072;15.132;2023-04-15T02:01:15;7.00;99.90
20929;DHT22;21895;47.072;15.132;2023-04-15T02:03:44;7.00;99.90
20929;DHT22;21895;47.072;15.132;2023-04-15T02:06:12;7.00;99.90
20929;DHT22;21895;47.072;15.132;2023-04-15T02:08:38;7.00;99.90
20929;DHT22;21895;47.072;15.132;2023-04-15T02:11:05;6.90;99.90
20929;DHT22;21895;47.072;15.132;2023-04-15T02:13:31;6.90;99.90
20929;DHT22;21895;47.072;15.132;2023-04-15T02:15:58;6.90;99.90
20929;DHT22;21895;47.072;15.132;2023-04-15T02:18:24;6.90;99.90
20929;DHT22;21895;47.072;15.132;2023-04-15T02:20:51;6.90;99.90
20929;DHT22;21895;47.072;15.132;2023-04-15T02:23:18;6.90;99.90
20929;DHT22;21895;47.072;15.132;2023-04-15T02:25:44;6.90;99.90
20929;DHT22;21895;47.072;15.132;2023-04-15T02:28:20;6.90;99.90
20929;DHT22;21895;47.072;15.132;2023-04-15T02:30:47;6.90;99.90
20929;DHT22;21895;47.072;15.132;2023-04-15T02:33:17;7.00;99.90
20929;DHT22;21895;47.072;15.132;2023-04-15T02:35:43;6.90;99.90
20929;DHT22;21895;47.072;15.132;2023-04-15T02:38:10;6.90;99.90
20929;DHT22;21895;47.072;15.132;2023-04-15T02:40:37;6.90;99.90
20929;DHT22;21895;47.072;15.132;2023-04-15T02:43:03;6.90;99.90
20929;DHT22;21895;47.072;15.132;2023-04-15T02:45:32;6.90;99.90
20929;DHT22;21895;47.072;15.132;2023-04-15T02:47:58;7.00;99.90
20929;DHT22;21895;47.072;15.132;2023-04-15T02:50:28;7.00;99.90
20929;DHT22;21895;47.072;15.132;2023-04-15T02:52:56;7.00;99.90
20929;DHT22;21895;47.072;15.132;2023-04-15T02:55:22;7.00;99.90
20929;DHT22;21895;47.072;15.132;2023-04-15T02:57:49;7.00;99.90
20929;DHT22;21895;47.072;15.132;2023-04-15T03:00:16;6.90;99.90
20929;DHT22;21895;47.072;15.132;2023-04-15T03:02:44;6.90;99.90
20929;DHT22;21895;47.072;15.132;2023-04-15T03:05:13;6.80;99.90
20929;DHT22;21895;47.072;15.132;2023-04-15T03:07:39;6.80;99.90
20929;DHT22;21895;47.072;15.132;2023-04-15T03:10:07;6.80;99.90
20929;DHT22;21895;47.072;15.132;2023-04-15T03:12:33;6.80;99.90
20929;DHT22;21895;47.072;15.132;2023-04-15T03:15:00;6.80;99.90
20929;DHT22;21895;47.072;15.132;2023-04-15T03:17:26;6.80;99.90
20929;DHT22;21895;47.072;15.132;2023-04-15T03:19:53;6.80;99.90
20929;DHT22;21895;47.072;15.132;2023-04-15T03:22:20;6.80;99.90
20929;DHT22;21895;47.072;15.132;2023-04-15T03:24:46;6.90;99.90
20929;DHT22;21895;47.072;15.132;2023-04-15T03:27:15;6.90;99.90
20929;DHT22;21895;47.072;15.132;2023-04-15T03:29:41;6.90;99.90
20929;DHT22;21895;47.072;15.132;2023-04-15T03:32:08;6.90;99.90
20929;DHT22;21895;47.072;15.132;2023-04-15T03:34:34;6.90;99.90
20929;DHT22;21895;47.072;15.132;2023-04-15T03:37:01;6.90;99.90
20929;DHT22;21895;47.072;15.132;2023-04-15T03:39:28;6.90;99.90
20929;DHT22;21895;47.072;15.132;2023-04-15T03:41:54;6.90;99.90
20929;DHT22;21895;47.072;15.132;2023-04-15T03:44:21;6.90;99.90
20929;DHT22;21895;47.072;15.132;2023-04-15T03:46:47;6.90;99.90
20929;DHT22;21895;47.072;15.132;2023-04-15T03:49:14;6.90;99.90
20929;DHT22;21895;47.072;15.132;2023-04-15T03:51:41;6.90;99.90
20929;DHT22;21895;47.072;15.132;2023-04-15T03:54:07;6.90;99.90
20929;DHT22;21895;47.072;15.132;2023-04-15T03:56:34;6.90;99.90
20929;DHT22;21895;47.072;15.132;2023-04-15T03:59:00;7.00;99.90
20929;DHT22;21895;47.072;15.132;2023-04-15T04:01:27;7.00;99.90
20929;DHT22;21895;47.072;15.132;2023-04-15T04:03:54;6.80;99.90
20929;DHT22;21895;47.072;15.132;2023-04-15T04:06:21;6.90;99.90
20929;DHT22;21895;47.072;15.132;2023-04-15T04:08:47;6.90;99.90
20929;DHT22;21895;47.072;15.132;2023-04-15T04:11:14;6.80;99.90
20929;DHT22;21895;47.072;15.132;2023-04-15T04:13:41;6.80;99.90
20929;DHT22;21895;47.072;15.132;2023-04-15T04:16:07;6.80;99.90
20929;DHT22;21895;47.072;15.132;2023-04-15T04:18:34;6.80;99.90
20929;DHT22;21895;47.072;15.132;2023-04-15T04:21:00;6.90;99.90
20929;DHT22;21895;47.072;15.132;2023-04-15T04:23:27;6.80;99.90
20929;DHT22;21895;47.072;15.132;2023-04-15T04:25:54;6.80;99.90
20929;DHT22;21895;47.072;15.132;2023-04-15T04:28:20;6.80;99.90
20929;DHT22;21895;47.072;15.132;2023-04-15T04:30:47;6.80;99.90
20929;DHT22;21895;47.072;15.132;2023-04-15T04:33:13;6.70;99.90
20929;DHT22;21895;47.072;15.132;2023-04-15T04:35:40;6.70;99.90
20929;DHT22;21895;47.072;15.132;2023-04-15T04:38:06;6.80;99.90
20929;DHT22;21895;47.072;15.132;2023-04-15T04:40:33;6.90;99.90
20929;DHT22;21895;47.072;15.132;2023-04-15T04:42:59;7.00;99.90
20929;DHT22;21895;47.072;15.132;2023-04-15T04:45:26;6.90;99.90
20929;DHT22;21895;47.072;15.132;2023-04-15T04:47:52;6.80;99.90
20929;DHT22;21895;47.072;15.132;2023-04-15T04:50:19;6.90;99.90
20929;DHT22;21895;47.072;15.132;2023-04-15T04:52:46;7.00;99.90
20929;DHT22;21895;47.072;15.132;2023-04-15T04:55:12;7.00;99.90
20929;DHT22;21895;47.072;15.132;2023-04-15T04:57:39;7.00;99.90
20929;DHT22;21895;47.072;15.132;2023-04-15T05:00:06;6.90;99.90
20929;DHT22;21895;47.072;15.132;2023-04-15T05:02:34;6.90;99.90
20929;DHT22;21895;47.072;15.132;2023-04-15T05:05:01;6.90;99.90
20929;DHT22;21895;47.072;15.132;2023-04-15T05:07:27;7.00;99.90
20929;DHT22;21895;47.072;15.132;2023-04-15T05:09:54;7.00;99.90
20929;DHT22;21895;47.072;15.132;2023-04-15T05:12:20;7.00;99.90
20929;DHT22;21895;47.072;15.132;2023-04-15T05:14:47;7.00;99.90
20929;DHT22;21895;47.072;15.132;2023-04-15T05:17:13;7.00;99.90
20929;DHT22;21895;47.072;15.132;2023-04-15T05:19:40;7.00;99.90
20929;DHT22;21895;47.072;15.132;2023-04-15T05:22:07;7.10;99.90
20929;DHT22;21895;47.072;15.132;2023-04-15T05:24:33;7.10;99.90
20929;DHT22;21895;47.072;15.132;2023-04-15T05:27:00;7.20;99.90
20929;DHT22;21895;47.072;15.132;2023-04-15T05:29:26;7.20;99.90
20929;DHT22;21895;47.072;15.132;2023-04-15T05:31:53;7.30;99.90
20929;DHT22;21895;47.072;15.132;2023-04-15T05:34:20;7.20;99.90
20929;DHT22;21895;47.072;15.132;2023-04-15T05:36:47;7.20;99.90
20929;DHT22;21895;47.072;15.132;2023-04-15T05:39:13;7.30;99.90
20929;DHT22;21895;47.072;15.132;2023-04-15T05:41:40;7.40;99.90
20929;DHT22;21895;47.072;15.132;2023-04-15T05:44:06;7.40;99.90
20929;DHT22;21895;47.072;15.132;2023-04-15T05:46:33;7.50;99.90
20929;DHT22;21895;47.072;15.132;2023-04-15T05:48:59;7.50;99.90
20929;DHT22;21895;47.072;15.132;2023-04-15T05:51:26;7.70;99.90
20929;DHT22;21895;47.072;15.132;2023-04-15T05:53:53;7.70;99.90
20929;DHT22;21895;47.072;15.132;2023-04-15T05:56:19;7.70;99.90
20929;DHT22;21895;47.072;15.132;2023-04-15T05:58:47;7.80;99.90
20929;DHT22;21895;47.072;15.132;2023-04-15T06:01:13;7.80;99.90
20929;DHT22;21895;47.072;15.132;2023-04-15T06:03:40;7.90;99.90
20929;DHT22;21895;47.072;15.132;2023-04-15T06:06:07;7.90;99.90
20929;DHT22;21895;47.072;15.132;2023-04-15T06:08:34;7.90;99.90
20929;DHT22;21895;47.072;15.132;2023-04-15T06:11:01;7.90;99.90
20929;DHT22;21895;47.072;15.132;2023-04-15T06:13:28;8.00;99.90
20929;DHT22;21895;47.072;15.132;2023-04-15T06:15:54;8.00;99.90
20929;DHT22;21895;47.072;15.132;2023-04-15T06:18:21;8.10;99.90
20929;DHT22;21895;47.072;15.132;2023-04-15T06:20:47;8.20;99.90
20929;DHT22;21895;47.072;15.132;2023-04-15T06:23:14;8.20;99.90
20929;DHT22;21895;47.072;15.132;2023-04-15T06:25:40;8.20;99.90
20929;DHT22;21895;47.072;15.132;2023-04-15T06:28:07;8.20;99.90
20929;DHT22;21895;47.072;15.132;2023-04-15T06:30:33;8.30;99.90
20929;DHT22;21895;47.072;15.132;2023-04-15T06:33:00;8.40;99.90
20929;DHT22;21895;47.072;15.132;2023-04-15T06:35:30;8.30;99.90
20929;DHT22;21895;47.072;15.132;2023-04-15T06:37:56;8.30;99.90
20929;DHT22;21895;47.072;15.132;2023-04-15T06:40:23;8.20;99.90
20929;DHT22;21895;47.072;15.132;2023-04-15T06:42:50;8.30;99.90
20929;DHT22;21895;47.072;15.132;2023-04-15T06:45:16;8.30;99.90
20929;DHT22;21895;47.072;15.132;2023-04-15T06:47:43;8.30;99.90
20929;DHT22;21895;47.072;15.132;2023-04-15T06:50:09;8.30;99.90
20929;DHT22;21895;47.072;15.132;2023-04-15T06:52:36;8.20;99.90
20929;DHT22;21895;47.072;15.132;2023-04-15T06:55:03;8.20;99.90
20929;DHT22;21895;47.072;15.132;2023-04-15T06:57:30;8.20;99.90
20929;DHT22;21895;47.072;15.132;2023-04-15T06:59:59;8.10;99.90
20929;DHT22;21895;47.072;15.132;2023-04-15T07:02:25;8.10;99.90
20929;DHT22;21895;47.072;15.132;2023-04-15T07:04:52;8.20;99.90
20929;DHT22;21895;47.072;15.132;2023-04-15T07:07:19;8.20;99.90
20929;DHT22;21895;47.072;15.132;2023-04-15T07:09:46;8.30;99.90
20929;DHT22;21895;47.072;15.132;2023-04-15T07:12:12;8.40;99.90
20929;DHT22;21895;47.072;15.132;2023-04-15T07:14:39;8.50;99.90
20929;DHT22;21895;47.072;15.132;2023-04-15T07:17:05;8.50;99.90
20929;DHT22;21895;47.072;15.132;2023-04-15T07:19:32;8.60;99.90
20929;DHT22;21895;47.072;15.132;2023-04-15T07:21:59;8.60;99.90
20929;DHT22;21895;47.072;15.132;2023-04-15T07:24:26;8.60;99.90
20929;DHT22;21895;47.072;15.132;2023-04-15T07:26:53;8.60;99.90
20929;DHT22;21895;47.072;15.132;2023-04-15T07:29:26;8.70;99.90
20929;DHT22;21895;47.072;15.132;2023-04-15T07:31:52;8.70;99.90
20929;DHT22;21895;47.072;15.132;2023-04-15T07:34:19;8.80;99.90
20929;DHT22;21895;47.072;15.132;2023-04-15T07:36:45;8.80;99.90
20929;DHT22;21895;47.072;15.132;2023-04-15T07:39:15;8.90;99.90
20929;DHT22;21895;47.072;15.132;2023-04-15T07:41:42;9.00;99.90
20929;DHT22;21895;47.072;15.132;2023-04-15T07:44:09;9.10;99.90
20929;DHT22;21895;47.072;15.132;2023-04-15T07:46:36;9.20;99.90
20929;DHT22;21895;47.072;15.132;2023-04-15T07:49:03;9.30;99.90
20929;DHT22;21895;47.072;15.132;2023-04-15T07:51:30;9.50;99.90
20929;DHT22;21895;47.072;15.132;2023-04-15T07:53:57;9.70;99.90
20929;DHT22;21895;47.072;15.132;2023-04-15T07:56:24;9.60;99.90
20929;DHT22;21895;47.072;15.132;2023-04-15T07:58:51;9.70;99.90
20929;DHT22;21895;47.072;15.132;2023-04-15T08:01:17;9.90;99.90
20929;DHT22;21895;47.072;15.132;2023-04-15T08:03:44;10.20;99.90
20929;DHT22;21895;47.072;15.132;2023-04-15T08:06:11;10.50;99.90
20929;DHT22;21895;47.072;15.132;2023-04-15T08:08:37;10.60;99.90
20929;DHT22;21895;47.072;15.132;2023-04-15T08:11:04;10.80;99.90
20929;DHT22;21895;47.072;15.132;2023-04-15T08:13:31;10.90;99.90
20929;DHT22;21895;47.072;15.132;2023-04-15T08:18:18;11.00;99.90
20929;DHT22;21895;47.072;15.132;2023-04-15T08:20:45;11.10;99.90
20929;DHT22;21895;47.072;15.132;2023-04-15T08:23:11;11.30;99.90
20929;DHT22;21895;47.072;15.132;2023-04-15T08:25:38;11.40;99.90
20929;DHT22;21895;47.072;15.132;2023-04-15T08:28:05;11.40;99.90
20929;DHT22;21895;47.072;15.132;2023-04-15T08:30:33;11.40;99.90
20929;DHT22;21895;47.072;15.132;2023-04-15T08:33:00;11.60;99.90
20929;DHT22;21895;47.072;15.132;2023-04-15T08:35:27;11.60;99.90
20929;DHT22;21895;47.072;15.132;2023-04-15T08:37:53;11.60;99.90
20929;DHT22;21895;47.072;15.132;2023-04-15T08:40:21;11.60;99.90
20929;DHT22;21895;47.072;15.132;2023-04-15T08:42:59;11.60;99.90
20929;DHT22;21895;47.072;15.132;2023-04-15T08:45:28;11.50;99.90
20929;DHT22;21895;47.072;15.132;2023-04-15T08:47:56;11.60;99.90
20929;DHT22;21895;47.072;15.132;2023-04-15T08:50:24;11.60;99.90
20929;DHT22;21895;47.072;15.132;2023-04-15T08:52:54;11.40;99.90
20929;DHT22;21895;47.072;15.132;2023-04-15T08:55:28;11.50;99.90
20929;DHT22;21895;47.072;15.132;2023-04-15T08:57:58;11.40;99.90
20929;DHT22;21895;47.072;15.132;2023-04-15T09:00:31;11.60;99.90
20929;DHT22;21895;47.072;15.132;2023-04-15T09:02:58;11.80;99.90
20929;DHT22;21895;47.072;15.132;2023-04-15T09:05:25;11.80;99.90
20929;DHT22;21895;47.072;15.132;2023-04-15T09:07:52;11.90;99.90
20929;DHT22;21895;47.072;15.132;2023-04-15T09:10:19;12.00;99.90
20929;DHT22;21895;47.072;15.132;2023-04-15T09:12:45;12.00;99.90
20929;DHT22;21895;47.072;15.132;2023-04-15T09:15:12;12.10;99.90
20929;DHT22;21895;47.072;15.132;2023-04-15T09:17:43;12.30;99.90
20929;DHT22;21895;47.072;15.132;2023-04-15T09:20:11;12.40;99.90
20929;DHT22;21895;47.072;15.132;2023-04-15T09:22:40;12.40;99.90
20929;DHT22;21895;47.072;15.132;2023-04-15T09:25:41;12.40;99.90
20929;DHT22;21895;47.072;15.132;2023-04-15T09:28:08;12.50;99.90
20929;DHT22;21895;47.072;15.132;2023-04-15T09:30:35;12.50;99.90
20929;DHT22;21895;47.072;15.132;2023-04-15T09:33:03;12.60;99.90
20929;DHT22;21895;47.072;15.132;2023-04-15T09:35:33;12.70;99.90
20929;DHT22;21895;47.072;15.132;2023-04-15T09:38:07;12.70;99.90
20929;DHT22;21895;47.072;15.132;2023-04-15T09:40:43;12.70;99.90
20929;DHT22;21895;47.072;15.132;2023-04-15T09:43:10;12.80;99.90
20929;DHT22;21895;47.072;15.132;2023-04-15T09:45:46;12.80;99.90
20929;DHT22;21895;47.072;15.132;2023-04-15T09:48:22;12.90;99.90
20929;DHT22;21895;47.072;15.132;2023-04-15T09:50:57;12.90;99.90
20929;DHT22;21895;47.072;15.132;2023-04-15T09:53:24;12.80;99.90
20929;DHT22;21895;47.072;15.132;2023-04-15T09:55:53;12.60;99.90
20929;DHT22;21895;47.072;15.132;2023-04-15T09:58:26;12.60;99.90
20929;DHT22;21895;47.072;15.132;2023-04-15T10:00:55;12.60;99.90
20929;DHT22;21895;47.072;15.132;2023-04-15T10:03:24;12.60;99.90
20929;DHT22;21895;47.072;15.132;2023-04-15T10:05:54;12.60;99.90
20929;DHT22;21895;47.072;15.132;2023-04-15T10:08:24;12.50;99.90
20929;DHT22;21895;47.072;15.132;2023-04-15T10:10:52;12.50;99.90
20929;DHT22;21895;47.072;15.132;2023-04-15T10:13:22;12.50;99.90
20929;DHT22;21895;47.072;15.132;2023-04-15T10:18:42;12.60;99.90
20929;DHT22;21895;47.072;15.132;2023-04-15T10:21:10;12.80;99.60
20929;DHT22;21895;47.072;15.132;2023-04-15T10:23:46;12.80;99.90
20929;DHT22;21895;47.072;15.132;2023-04-15T10:26:14;12.80;99.60
20929;DHT22;21895;47.072;15.132;2023-04-15T10:28:43;13.10;99.70
20929;DHT22;21895;47.072;15.132;2023-04-15T10:31:13;13.10;99.70
20929;DHT22;21895;47.072;15.132;2023-04-15T10:33:42;13.30;99.50
20929;DHT22;21895;47.072;15.132;2023-04-15T10:36:11;13.40;99.00
20929;DHT22;21895;47.072;15.132;2023-04-15T10:38:42;13.40;99.10
20929;DHT22;21895;47.072;15.132;2023-04-15T10:41:21;13.40;98.70
20929;DHT22;21895;47.072;15.132;2023-04-15T10:44:07;13.30;97.50
20929;DHT22;21895;47.072;15.132;2023-04-15T10:46:41;13.50;97.20
20929;DHT22;21895;47.072;15.132;2023-04-15T10:49:16;13.60;97.20
20929;DHT22;21895;47.072;15.132;2023-04-15T10:51:51;13.70;96.30
20929;DHT22;21895;47.072;15.132;2023-04-15T10:54:39;13.80;95.90
20929;DHT22;21895;47.072;15.132;2023-04-15T11:01:12;13.80;96.10
20929;DHT22;21895;47.072;15.132;2023-04-15T11:03:41;13.60;96.40
20929;DHT22;21895;47.072;15.132;2023-04-15T11:06:11;13.50;94.80
20929;DHT22;21895;47.072;15.132;2023-04-15T11:08:57;13.60;94.40
20929;DHT22;21895;47.072;15.132;2023-04-15T11:12:04;13.10;94.50
20929;DHT22;21895;47.072;15.132;2023-04-15T11:14:39;13.00;94.90
20929;DHT22;21895;47.072;15.132;2023-04-15T11:17:08;13.10;94.10
20929;DHT22;21895;47.072;15.132;2023-04-15T11:19:35;13.10;94.30
20929;DHT22;21895;47.072;15.132;2023-04-15T11:22:10;13.00;94.10
20929;DHT22;21895;47.072;15.132;2023-04-15T11:24:46;13.00;94.10
20929;DHT22;21895;47.072;15.132;2023-04-15T11:27:22;12.90;93.60
20929;DHT22;21895;47.072;15.132;2023-04-15T11:29:48;13.10;92.80
20929;DHT22;21895;47.072;15.132;2023-04-15T11:32:15;13.00;93.40
20929;DHT22;21895;47.072;15.132;2023-04-15T11:34:44;13.10;94.00
20929;DHT22;21895;47.072;15.132;2023-04-15T11:37:11;13.20;93.60
20929;DHT22;21895;47.072;15.132;2023-04-15T11:39:38;13.30;93.50
20929;DHT22;21895;47.072;15.132;2023-04-15T11:42:16;13.40;93.30
20929;DHT22;21895;47.072;15.132;2023-04-15T11:44:43;13.70;93.00
20929;DHT22;21895;47.072;15.132;2023-04-15T11:47:23;13.90;93.00
20929;DHT22;21895;47.072;15.132;2023-04-15T11:49:49;14.20;92.70
20929;DHT22;21895;47.072;15.132;2023-04-15T11:52:16;14.00;92.40
20929;DHT22;21895;47.072;15.132;2023-04-15T11:54:43;13.70;92.50
20929;DHT22;21895;47.072;15.132;2023-04-15T11:57:09;13.50;93.20
20929;DHT22;21895;47.072;15.132;2023-04-15T11:59:42;13.60;92.40
20929;DHT22;21895;47.072;15.132;2023-04-15T12:02:12;13.60;93.20
20929;DHT22;21895;47.072;15.132;2023-04-15T12:04:39;13.70;92.50
20929;DHT22;21895;47.072;15.132;2023-04-15T12:07:06;13.80;92.80
20929;DHT22;21895;47.072;15.132;2023-04-15T12:09:37;13.90;92.30
20929;DHT22;21895;47.072;15.132;2023-04-15T12:12:04;14.00;92.20
20929;DHT22;21895;47.072;15.132;2023-04-15T12:14:32;14.10;92.00
20929;DHT22;21895;47.072;15.132;2023-04-15T12:17:03;14.10;91.90
20929;DHT22;21895;47.072;15.132;2023-04-15T12:19:38;13.80;91.70
20929;DHT22;21895;47.072;15.132;2023-04-15T12:22:11;13.50;91.80
20929;DHT22;21895;47.072;15.132;2023-04-15T12:24:43;13.20;91.90
20929;DHT22;21895;47.072;15.132;2023-04-15T12:27:15;13.10;92.60
20929;DHT22;21895;47.072;15.132;2023-04-15T12:29:42;13.00;92.50
20929;DHT22;21895;47.072;15.132;2023-04-15T12:32:10;13.10;92.30
20929;DHT22;21895;47.072;15.132;2023-04-15T12:34:43;13.10;92.70
20929;DHT22;21895;47.072;15.132;2023-04-15T12:37:15;13.00;91.80
20929;DHT22;21895;47.072;15.132;2023-04-15T12:39:45;12.90;92.50
20929;DHT22;21895;47.072;15.132;2023-04-15T12:42:14;12.80;92.00
20929;DHT22;21895;47.072;15.132;2023-04-15T12:44:42;12.80;92.70
20929;DHT22;21895;47.072;15.132;2023-04-15T12:47:10;12.70;92.50
20929;DHT22;21895;47.072;15.132;2023-04-15T12:49:37;12.70;92.70
20929;DHT22;21895;47.072;15.132;2023-04-15T12:52:04;12.70;93.20
20929;DHT22;21895;47.072;15.132;2023-04-15T12:54:31;12.90;92.30
20929;DHT22;21895;47.072;15.132;2023-04-15T12:56:58;12.80;93.00
20929;DHT22;21895;47.072;15.132;2023-04-15T12:59:25;12.80;92.50
20929;DHT22;21895;47.072;15.132;2023-04-15T13:01:52;12.90;92.70
20929;DHT22;21895;47.072;15.132;2023-04-15T13:04:20;13.10;92.80
20929;DHT22;21895;47.072;15.132;2023-04-15T13:06:47;13.20;93.10
20929;DHT22;21895;47.072;15.132;2023-04-15T13:09:14;13.20;92.20
20929;DHT22;21895;47.072;15.132;2023-04-15T13:11:40;13.20;92.10
20929;DHT22;21895;47.072;15.132;2023-04-15T13:14:08;13.10;92.40
20929;DHT22;21895;47.072;15.132;2023-04-15T13:16:36;13.00;92.10
20929;DHT22;21895;47.072;15.132;2023-04-15T13:19:03;12.90;92.20
20929;DHT22;21895;47.072;15.132;2023-04-15T13:21:30;12.90;92.60
20929;DHT22;21895;47.072;15.132;2023-04-15T13:23:59;13.00;92.00
20929;DHT22;21895;47.072;15.132;2023-04-15T13:26:26;13.00;91.90
20929;DHT22;21895;47.072;15.132;2023-04-15T13:28:53;13.00;92.50
20929;DHT22;21895;47.072;15.132;2023-04-15T13:31:19;12.90;92.60
20929;DHT22;21895;47.072;15.132;2023-04-15T13:33:46;12.90;92.20
20929;DHT22;21895;47.072;15.132;2023-04-15T13:36:13;13.00;92.30
20929;DHT22;21895;47.072;15.132;2023-04-15T13:38:39;13.10;92.00
20929;DHT22;21895;47.072;15.132;2023-04-15T13:41:06;13.20;92.50
20929;DHT22;21895;47.072;15.132;2023-04-15T13:43:32;13.30;91.80
20929;DHT22;21895;47.072;15.132;2023-04-15T13:45:59;13.30;91.90
20929;DHT22;21895;47.072;15.132;2023-04-15T13:48:26;13.20;91.90
20929;DHT22;21895;47.072;15.132;2023-04-15T13:50:53;13.00;92.20
20929;DHT22;21895;47.072;15.132;2023-04-15T13:53:19;12.90;92.70
20929;DHT22;21895;47.072;15.132;2023-04-15T13:55:59;13.00;92.60
20929;DHT22;21895;47.072;15.132;2023-04-15T13:58:26;13.10;92.20
20929;DHT22;21895;47.072;15.132;2023-04-15T14:00:52;13.20;92.60
20929;DHT22;21895;47.072;15.132;2023-04-15T14:03:19;13.20;92.20
20929;DHT22;21895;47.072;15.132;2023-04-15T14:05:45;13.20;92.30
20929;DHT22;21895;47.072;15.132;2023-04-15T14:08:12;13.20;92.10
20929;DHT22;21895;47.072;15.132;2023-04-15T14:10:41;13.20;91.90
20929;DHT22;21895;47.072;15.132;2023-04-15T14:13:11;13.30;91.70
20929;DHT22;21895;47.072;15.132;2023-04-15T14:15:37;13.30;91.60
20929;DHT22;21895;47.072;15.132;2023-04-15T14:18:04;13.20;91.60
20929;DHT22;21895;47.072;15.132;2023-04-15T14:20:30;13.10;92.00
20929;DHT22;21895;47.072;15.132;2023-04-15T14:22:57;13.00;91.50
20929;DHT22;21895;47.072;15.132;2023-04-15T14:25:23;13.10;92.10
20929;DHT22;21895;47.072;15.132;2023-04-15T14:28:00;13.00;92.30
20929;DHT22;21895;47.072;15.132;2023-04-15T14:30:27;13.00;91.80
20929;DHT22;21895;47.072;15.132;2023-04-15T14:32:53;13.10;91.50
20929;DHT22;21895;47.072;15.132;2023-04-15T14:35:20;12.90;92.20
20929;DHT22;21895;47.072;15.132;2023-04-15T14:37:47;12.90;92.00
20929;DHT22;21895;47.072;15.132;2023-04-15T14:40:13;12.90;92.30
20929;DHT22;21895;47.072;15.132;2023-04-15T14:42:40;12.90;92.10
20929;DHT22;21895;47.072;15.132;2023-04-15T14:45:07;12.90;93.00
20929;DHT22;21895;47.072;15.132;2023-04-15T14:47:34;13.00;92.20
20929;DHT22;21895;47.072;15.132;2023-04-15T14:50:01;12.80;92.00
20929;DHT22;21895;47.072;15.132;2023-04-15T14:52:30;12.70;92.60
20929;DHT22;21895;47.072;15.132;2023-04-15T14:55:05;12.70;93.20
20929;DHT22;21895;47.072;15.132;2023-04-15T14:57:33;12.70;93.00
20929;DHT22;21895;47.072;15.132;2023-04-15T14:59:59;12.70;92.90
20929;DHT22;21895;47.072;15.132;2023-04-15T15:02:26;12.70;92.60
20929;DHT22;21895;47.072;15.132;2023-04-15T15:05:05;12.60;93.10
20929;DHT22;21895;47.072;15.132;2023-04-15T15:07:32;12.70;92.50
20929;DHT22;21895;47.072;15.132;2023-04-15T15:09:59;12.80;92.80
20929;DHT22;21895;47.072;15.132;2023-04-15T15:12:25;12.70;92.80
20929;DHT22;21895;47.072;15.132;2023-04-15T15:14:53;12.70;92.70
20929;DHT22;21895;47.072;15.132;2023-04-15T15:17:21;12.60;92.70
20929;DHT22;21895;47.072;15.132;2023-04-15T15:19:47;12.70;93.10
20929;DHT22;21895;47.072;15.132;2023-04-15T15:22:14;12.70;93.20
20929;DHT22;21895;47.072;15.132;2023-04-15T15:24:40;12.60;93.20
20929;DHT22;21895;47.072;15.132;2023-04-15T15:27:07;12.50;93.70
20929;DHT22;21895;47.072;15.132;2023-04-15T15:29:33;12.40;93.70
20929;DHT22;21895;47.072;15.132;2023-04-15T15:32:00;12.40;93.70
20929;DHT22;21895;47.072;15.132;2023-04-15T15:34:26;12.50;93.40
20929;DHT22;21895;47.072;15.132;2023-04-15T15:36:53;12.30;93.30